createdAt,value
2018-01-21T00:00:04.014Z,10.50
2018-01-21T00:02:31.440Z,9.63
2018-01-21T00:04:58.895Z,11.83
2018-01-21T00:07:26.355Z,15.83
2018-01-21T00:09:53.811Z,10.37
2018-01-21T00:12:21.240Z,11.53
2018-01-21T00:14:49.036Z,11.03
2018-01-21T00:17:16.456Z,9.53
2018-01-21T00:19:43.940Z,9.90
2018-01-21T00:22:11.384Z,11.20
2018-01-21T00:24:38.812Z,15.50
2018-01-21T00:27:07.008Z,10.67
2018-01-21T00:29:34.488Z,10.30
2018-01-21T00:32:01.950Z,9.63
2018-01-21T00:34:29.388Z,10.00
2018-01-21T00:36:56.823Z,8.90
2018-01-21T00:39:25.038Z,8.33
2018-01-21T00:41:52.467Z,9.10
2018-01-21T00:44:19.904Z,7.40
2018-01-21T00:46:48.119Z,8.00
2018-01-21T00:49:15.547Z,6.80
2018-01-21T00:51:42.996Z,7.10
2018-01-21T00:54:11.217Z,7.20
2018-01-21T00:56:38.642Z,7.63
2018-01-21T00:59:06.081Z,7.53
2018-01-21T01:01:34.280Z,7.60
2018-01-21T01:04:01.699Z,8.10
2018-01-21T01:06:29.216Z,8.43
2018-01-21T01:08:56.667Z,7.90
2018-01-21T01:11:24.108Z,8.17
2018-01-21T01:13:51.548Z,8.67
2018-01-21T01:16:19.736Z,9.40
2018-01-21T01:18:47.172Z,9.80
2018-01-21T01:21:15.696Z,9.50
2018-01-21T01:23:43.128Z,10.50
2018-01-21T01:26:10.576Z,11.73
2018-01-21T01:28:39.091Z,11.93
2018-01-21T01:31:06.526Z,11.47
2018-01-21T01:33:34.008Z,12.97
2018-01-21T01:36:01.452Z,12.33
2018-01-21T01:38:28.879Z,13.17
2018-01-21T01:40:57.091Z,13.87
2018-01-21T01:43:24.839Z,14.30
2018-01-21T01:45:52.268Z,14.80
2018-01-21T01:48:20.484Z,15.20
2018-01-21T01:50:47.922Z,14.80
2018-01-21T01:53:15.351Z,16.63
2018-01-21T01:55:43.576Z,15.10
2018-01-21T01:58:11.344Z,13.23
2018-01-21T02:00:38.800Z,14.10
2018-01-21T02:03:06.238Z,14.73
2018-01-21T02:05:33.680Z,13.40
2018-01-21T02:08:01.110Z,11.70
2018-01-21T02:10:28.540Z,12.37
2018-01-21T02:12:55.976Z,12.20
2018-01-21T02:15:23.437Z,12.77
2018-01-21T02:17:50.904Z,10.67
2018-01-21T02:20:18.664Z,10.57
2018-01-21T02:22:46.087Z,8.47
2018-01-21T02:25:13.507Z,7.80
2018-01-21T02:27:41.027Z,7.37
2018-01-21T02:30:08.497Z,6.27
2018-01-21T02:32:35.949Z,6.40
2018-01-21T02:35:03.375Z,6.63
2018-01-21T02:37:30.863Z,7.00
2018-01-21T02:39:58.288Z,7.23
2018-01-21T02:42:25.983Z,7.10
2018-01-21T02:44:53.408Z,7.60
2018-01-21T02:47:20.876Z,8.60
2018-01-21T02:49:48.362Z,7.73
2018-01-21T02:52:15.792Z,7.43
2018-01-21T02:54:43.220Z,6.73
2018-01-21T02:57:11.419Z,5.87
2018-01-21T02:59:38.898Z,5.10
2018-01-21T03:02:06.357Z,5.03
2018-01-21T03:04:34.218Z,5.23
2018-01-21T03:07:01.687Z,5.27
2018-01-21T03:09:29.136Z,4.40
2018-01-21T03:11:56.695Z,4.53
2018-01-21T03:14:24.159Z,4.10
2018-01-21T03:16:51.584Z,4.20
2018-01-21T03:19:19.280Z,4.53
2018-01-21T03:21:46.757Z,4.10
2018-01-21T03:24:14.163Z,5.20
2018-01-21T03:26:42.767Z,4.30
2018-01-21T03:29:10.200Z,3.30
2018-01-21T03:31:37.683Z,3.70
2018-01-21T03:34:05.132Z,3.20
2018-01-21T03:36:32.567Z,3.63
2018-01-21T03:38:59.992Z,3.17
2018-01-21T03:41:27.720Z,3.17
2018-01-21T03:43:55.176Z,2.83
2018-01-21T03:46:22.607Z,2.53
2018-01-21T03:48:50.039Z,3.10
2018-01-21T03:51:18.271Z,2.10
2018-01-21T03:53:45.698Z,2.57
2018-01-21T03:56:13.488Z,2.80
2018-01-21T03:58:40.936Z,2.87
2018-01-21T04:01:08.367Z,2.43
2018-01-21T04:03:36.563Z,2.37
2018-01-21T04:06:03.984Z,2.40
2018-01-21T04:08:32.204Z,2.43
2018-01-21T04:10:59.642Z,2.30
2018-01-21T04:13:27.117Z,2.13
2018-01-21T04:15:54.550Z,2.13
2018-01-21T04:18:22.235Z,2.27
2018-01-21T04:20:49.660Z,2.20
2018-01-21T04:23:17.861Z,2.63
2018-01-21T04:25:45.296Z,2.60
2018-01-21T04:28:12.724Z,2.60
2018-01-21T04:30:40.150Z,2.60
2018-01-21T04:33:07.899Z,2.50
2018-01-21T04:35:35.360Z,2.57
2018-01-21T04:38:02.836Z,2.17
2018-01-21T04:40:30.372Z,3.00
2018-01-21T04:42:57.832Z,2.20
2018-01-21T04:45:25.287Z,2.73
2018-01-21T04:47:52.747Z,2.23
2018-01-21T04:50:20.203Z,2.73
2018-01-21T04:52:47.627Z,1.83
2018-01-21T04:55:16.140Z,2.40
2018-01-21T04:57:43.592Z,1.90
2018-01-21T05:00:11.055Z,2.20
2018-01-21T05:02:38.488Z,1.90
2018-01-21T05:05:05.976Z,2.30
2018-01-21T05:07:33.432Z,1.80
2018-01-21T05:10:00.889Z,1.93
2018-01-21T05:12:28.339Z,2.13
2018-01-21T05:14:55.759Z,1.70
2018-01-21T05:17:24.187Z,1.70
2018-01-21T05:19:51.631Z,1.83
2018-01-21T05:22:19.084Z,1.70
2018-01-21T05:24:46.504Z,2.33
2018-01-21T05:27:14.693Z,1.63
2018-01-21T05:29:42.120Z,2.60
2018-01-21T05:32:09.867Z,2.30
2018-01-21T05:34:37.297Z,2.60
2018-01-21T05:37:04.731Z,2.20
2018-01-21T05:39:32.173Z,3.30
2018-01-21T05:42:00.384Z,2.80
2018-01-21T05:44:27.837Z,2.80
2018-01-21T05:46:55.483Z,2.60
2018-01-21T05:49:22.908Z,2.27
2018-01-21T05:51:50.328Z,3.00
2018-01-21T05:54:17.770Z,3.23
2018-01-21T05:56:45.254Z,3.03
2018-01-21T05:59:12.681Z,2.50
2018-01-21T06:01:40.136Z,3.27
2018-01-21T06:04:07.558Z,3.00
2018-01-21T06:06:35.782Z,2.87
2018-01-21T06:09:03.216Z,2.30
2018-01-21T06:11:30.636Z,2.70
2018-01-21T06:13:58.152Z,2.53
2018-01-21T06:16:25.920Z,2.50
2018-01-21T06:18:53.340Z,2.80
2018-01-21T06:21:20.776Z,2.23
2018-01-21T06:23:49.004Z,2.27
2018-01-21T06:26:16.470Z,2.00
2018-01-21T06:28:43.895Z,2.47
2018-01-21T06:31:11.373Z,1.90
2018-01-21T06:33:38.811Z,1.93
2018-01-21T06:36:06.287Z,2.70
2018-01-21T06:38:33.740Z,2.43
2018-01-21T06:41:01.172Z,2.33
2018-01-21T06:43:28.602Z,2.00
2018-01-21T06:45:56.040Z,1.93
2018-01-21T06:48:23.568Z,1.97
2018-01-21T06:50:50.988Z,2.27
2018-01-21T06:53:19.196Z,2.30
2018-01-21T06:55:46.629Z,2.70
2018-01-21T06:58:14.844Z,2.10
2018-01-21T07:00:42.292Z,2.30
2018-01-21T07:03:09.747Z,2.60
2018-01-21T07:05:37.172Z,2.27
2018-01-21T07:08:04.610Z,2.80
2018-01-21T07:10:32.084Z,2.23
2018-01-21T07:12:59.458Z,2.40
2018-01-21T07:15:27.236Z,2.60
2018-01-21T07:17:54.721Z,2.10
2018-01-21T07:20:22.152Z,2.63
2018-01-21T07:22:49.612Z,2.90
2018-01-21T07:25:17.064Z,2.70
2018-01-21T07:27:44.488Z,2.70
2018-01-21T07:30:12.936Z,2.50
2018-01-21T07:32:40.370Z,2.30
2018-01-21T07:35:07.788Z,2.17
2018-01-21T07:37:35.219Z,1.90
2018-01-21T07:40:02.662Z,2.93
2018-01-21T07:42:32.757Z,2.67
2018-01-21T07:45:00.507Z,3.30
2018-01-21T07:47:27.968Z,3.30
2018-01-21T07:49:55.394Z,3.13
2018-01-21T07:52:23.589Z,3.17
2018-01-21T07:54:51.060Z,3.17
2018-01-21T07:57:18.485Z,2.87
2018-01-21T07:59:46.689Z,3.20
2018-01-21T08:02:14.149Z,3.40
2018-01-21T08:04:41.604Z,2.17
2018-01-21T08:07:09.063Z,2.50
2018-01-21T08:09:36.515Z,2.60
2018-01-21T08:12:03.970Z,2.67
2018-01-21T08:14:31.480Z,3.10
2018-01-21T08:16:58.863Z,2.60
2018-01-21T08:19:26.284Z,2.67
2018-01-21T08:21:54.520Z,2.60
2018-01-21T08:24:21.940Z,2.60
2018-01-21T08:26:50.148Z,2.73
2018-01-21T08:29:17.587Z,3.20
2018-01-21T08:31:45.069Z,2.53
2018-01-21T08:34:18.251Z,3.07
2018-01-21T08:36:51.353Z,2.30
2018-01-21T08:39:24.853Z,2.77
2018-01-21T08:42:07.152Z,2.50
2018-01-21T08:44:34.604Z,1.93
2018-01-21T08:47:02.031Z,1.63
2018-01-21T08:49:29.456Z,2.20
2018-01-21T08:51:56.896Z,2.17
2018-01-21T08:54:25.084Z,1.97
2018-01-21T08:56:52.564Z,2.33
2018-01-21T08:59:20.020Z,2.20
2018-01-21T09:01:47.448Z,1.70
2018-01-21T09:04:15.656Z,1.97
2018-01-21T09:06:43.403Z,2.10
2018-01-21T09:09:10.876Z,2.30
2018-01-21T09:11:38.292Z,2.50
2018-01-21T09:14:06.603Z,2.07
2018-01-21T09:16:34.004Z,2.50
2018-01-21T09:19:01.530Z,3.10
2018-01-21T09:21:29.464Z,3.00
2018-01-21T09:23:56.897Z,1.87
2018-01-21T09:26:24.404Z,2.33
2018-01-21T09:28:51.867Z,2.40
2018-01-21T09:31:19.317Z,2.50
2018-01-21T09:33:46.724Z,2.90
2018-01-21T09:36:14.164Z,2.60
2018-01-21T09:38:41.692Z,2.27
2018-01-21T09:41:09.144Z,2.30
2018-01-21T09:43:36.560Z,2.80
2018-01-21T09:46:05.586Z,2.63
2018-01-21T09:48:33.014Z,2.40
2018-01-21T09:51:01.223Z,2.87
2018-01-21T09:53:28.690Z,2.17
2018-01-21T09:55:56.115Z,2.20
2018-01-21T09:58:23.809Z,2.53
2018-01-21T10:00:51.232Z,2.20
2018-01-21T10:03:18.719Z,2.20
2018-01-21T10:05:46.152Z,2.27
2018-01-21T10:08:13.580Z,2.43
2018-01-21T10:10:41.009Z,2.10
2018-01-21T10:13:08.752Z,1.80
2018-01-21T10:15:36.214Z,1.73
2018-01-21T10:18:03.636Z,2.00
2018-01-21T10:20:31.835Z,2.27
2018-01-21T10:22:59.251Z,2.40
2018-01-21T10:25:27.473Z,2.27
2018-01-21T10:27:54.928Z,1.90
2018-01-21T10:30:22.388Z,2.10
2018-01-21T10:32:49.863Z,2.00
2018-01-21T10:35:17.280Z,2.43
2018-01-21T10:37:44.763Z,2.23
2018-01-21T10:40:12.190Z,2.37
2018-01-21T10:42:39.624Z,2.47
2018-01-21T10:45:07.848Z,1.97
2018-01-21T10:47:35.308Z,2.10
2018-01-21T10:50:02.744Z,3.20
2018-01-21T10:52:30.176Z,1.77
2018-01-21T10:54:58.392Z,2.60
2018-01-21T10:57:25.852Z,2.20
2018-01-21T10:59:53.275Z,1.97
2018-01-21T11:02:20.793Z,2.00
2018-01-21T11:04:48.231Z,2.10
2018-01-21T11:07:15.680Z,2.10
2018-01-21T11:09:43.101Z,2.50
2018-01-21T11:12:11.304Z,1.80
2018-01-21T11:14:38.735Z,1.90
2018-01-21T11:17:06.919Z,2.07
2018-01-21T11:19:34.359Z,2.67
2018-01-21T11:22:02.548Z,2.03
2018-01-21T11:24:29.967Z,2.07
2018-01-21T11:26:57.484Z,2.00
2018-01-21T11:29:24.944Z,2.10
2018-01-21T11:31:53.313Z,1.70
2018-01-21T11:34:20.756Z,1.63
2018-01-21T11:36:48.245Z,2.47
2018-01-21T11:39:15.705Z,1.87
2018-01-21T11:41:43.468Z,2.13
2018-01-21T11:44:10.905Z,2.13
2018-01-21T11:46:38.313Z,1.80
2018-01-21T11:49:05.834Z,1.90
2018-01-21T11:51:33.265Z,1.57
2018-01-21T11:54:00.769Z,2.93
2018-01-21T11:56:28.209Z,1.87
2018-01-21T11:58:55.656Z,1.97
2018-01-21T12:01:23.118Z,1.73
2018-01-21T12:03:50.576Z,1.53
2018-01-21T12:06:18.008Z,1.83
2018-01-21T12:08:45.489Z,1.40
2018-01-21T12:11:12.946Z,1.70
2018-01-21T12:13:40.371Z,1.47
2018-01-21T12:16:07.797Z,1.77
2018-01-21T12:18:35.258Z,1.70
2018-01-21T12:21:02.773Z,1.37
2018-01-21T12:23:30.200Z,2.23
2018-01-21T12:25:58.400Z,1.70
2018-01-21T12:28:25.860Z,1.90
2018-01-21T12:30:53.330Z,2.37
2018-01-21T12:33:20.769Z,1.57
2018-01-21T12:35:48.232Z,1.90
2018-01-21T12:38:15.688Z,1.60
2018-01-21T12:40:43.120Z,1.80
2018-01-21T12:43:10.600Z,1.83
2018-01-21T12:45:38.020Z,1.47
2018-01-21T12:48:06.233Z,1.57
2018-01-21T12:50:33.661Z,1.97
2018-01-21T12:53:01.854Z,1.50
2018-01-21T12:55:29.316Z,2.40
2018-01-21T12:57:56.732Z,1.83
2018-01-21T13:00:24.956Z,1.67
2018-01-21T13:02:52.392Z,1.63
2018-01-21T13:05:19.820Z,1.73
2018-01-21T13:07:48.017Z,1.77
2018-01-21T13:10:15.496Z,1.40
2018-01-21T13:12:42.960Z,1.60
2018-01-21T13:15:10.409Z,1.20
2018-01-21T13:17:37.868Z,1.60
2018-01-21T13:20:05.296Z,1.07
2018-01-21T13:22:32.784Z,1.40
2018-01-21T13:25:00.240Z,2.17
2018-01-21T13:27:27.743Z,2.47
2018-01-21T13:29:55.152Z,2.03
2018-01-21T13:32:22.612Z,1.80
2018-01-21T13:34:50.040Z,4.60
2018-01-21T13:37:17.524Z,1.67
2018-01-21T13:39:44.984Z,1.70
2018-01-21T13:42:12.422Z,1.43
2018-01-21T13:44:39.896Z,1.43
2018-01-21T13:47:07.332Z,1.50
2018-01-21T13:49:34.848Z,1.77
2018-01-21T13:52:02.372Z,2.10
2018-01-21T13:54:29.816Z,1.37
2018-01-21T13:56:57.228Z,1.80
2018-01-21T13:59:25.416Z,1.23
2018-01-21T14:01:53.616Z,1.20
2018-01-21T14:04:21.044Z,1.57
2018-01-21T14:06:49.241Z,1.60
2018-01-21T14:09:16.722Z,1.73
2018-01-21T14:11:44.139Z,1.40
2018-01-21T14:14:12.358Z,1.47
2018-01-21T14:16:39.812Z,1.60
2018-01-21T14:19:07.262Z,1.50
2018-01-21T14:21:34.735Z,1.53
2018-01-21T14:24:02.493Z,2.90
2018-01-21T14:26:29.949Z,1.40
2018-01-21T14:28:57.376Z,4.57
2018-01-21T14:31:24.860Z,1.93
2018-01-21T14:33:52.316Z,1.47
2018-01-21T14:36:19.805Z,1.90
2018-01-21T14:38:47.240Z,2.37
2018-01-21T14:41:14.704Z,1.60
2018-01-21T14:43:42.207Z,1.50
2018-01-21T14:46:10.414Z,2.00
2018-01-21T14:48:37.876Z,1.90
2018-01-21T14:51:05.336Z,5.97
2018-01-21T14:53:32.791Z,2.40
2018-01-21T14:56:00.252Z,2.07
2018-01-21T14:58:27.708Z,1.87
2018-01-21T15:00:55.157Z,2.13
2018-01-21T15:03:22.581Z,3.50
2018-01-21T15:05:50.770Z,2.53
2018-01-21T15:08:18.456Z,2.47
2018-01-21T15:10:45.884Z,3.23
2018-01-21T15:13:13.310Z,3.60
2018-01-21T15:15:40.836Z,3.00
2018-01-21T15:18:08.284Z,5.87
2018-01-21T15:20:35.712Z,4.10
2018-01-21T15:23:03.535Z,3.83
2018-01-21T15:25:30.959Z,4.00
2018-01-21T15:27:58.420Z,2.83
2018-01-21T15:30:25.893Z,3.30
2018-01-21T15:32:53.282Z,3.77
2018-01-21T15:35:20.704Z,3.67
2018-01-21T15:37:48.148Z,3.10
2018-01-21T15:40:15.580Z,3.33
2018-01-21T15:42:43.072Z,3.40
2018-01-21T15:45:10.511Z,3.70
2018-01-21T15:47:37.972Z,3.27
2018-01-21T15:50:05.408Z,3.20
2018-01-21T15:52:32.866Z,3.13
2018-01-21T15:55:00.292Z,4.00
2018-01-21T15:57:27.804Z,3.60
2018-01-21T15:59:56.980Z,3.83
2018-01-21T16:02:24.459Z,3.33
2018-01-21T16:04:51.885Z,3.20
2018-01-21T16:07:20.403Z,3.87
2018-01-21T16:09:47.824Z,5.10
2018-01-21T16:12:15.302Z,4.30
2018-01-21T16:14:42.691Z,4.97
2018-01-21T16:17:10.180Z,5.70
2018-01-21T16:19:37.637Z,5.67
2018-01-21T16:22:05.865Z,4.87
2018-01-21T16:24:33.328Z,5.07
2018-01-21T16:27:00.760Z,4.83
2018-01-21T16:29:28.206Z,4.33
2018-01-21T16:31:55.636Z,4.80
2018-01-21T16:34:23.065Z,4.70
2018-01-21T16:36:50.511Z,5.00
2018-01-21T16:39:17.919Z,5.93
2018-01-21T16:41:46.111Z,4.93
2018-01-21T16:44:13.556Z,6.20
2018-01-21T16:46:41.050Z,6.53
2018-01-21T16:49:08.511Z,7.67
2018-01-21T16:51:35.956Z,6.43
2018-01-21T16:54:03.380Z,6.33
2018-01-21T16:56:31.564Z,5.90
2018-01-21T16:58:59.048Z,5.73
2018-01-21T17:01:26.507Z,7.43
2018-01-21T17:03:53.978Z,8.23
2018-01-21T17:06:21.421Z,7.60
2018-01-21T17:08:48.841Z,7.50
2018-01-21T17:11:17.028Z,5.97
2018-01-21T17:13:44.461Z,5.87
2018-01-21T17:16:12.668Z,6.07
2018-01-21T17:18:40.136Z,7.10
2018-01-21T17:21:07.586Z,7.67
2018-01-21T17:23:35.004Z,6.80
2018-01-21T17:26:03.200Z,7.63
2018-01-21T17:28:30.683Z,7.20
2018-01-21T17:30:58.140Z,8.30
2018-01-21T17:33:25.590Z,8.97
2018-01-21T17:35:53.255Z,9.50
2018-01-21T17:38:20.710Z,9.07
2018-01-21T17:40:48.173Z,10.10
2018-01-21T17:43:15.618Z,9.43
2018-01-21T17:45:43.044Z,9.40
2018-01-21T17:48:11.261Z,9.63
2018-01-21T17:50:38.740Z,10.07
2018-01-21T17:53:06.168Z,10.97
2018-01-21T17:55:33.632Z,11.20
2018-01-21T17:58:01.092Z,10.60
2018-01-21T18:00:28.524Z,12.23
2018-01-21T18:02:56.012Z,13.47
2018-01-21T18:05:23.457Z,12.03
2018-01-21T18:07:50.884Z,10.77
2018-01-21T18:10:19.101Z,11.53
2018-01-21T18:12:46.874Z,11.00
2018-01-21T18:15:14.292Z,11.30
2018-01-21T18:17:41.774Z,12.13
2018-01-21T18:20:09.537Z,10.87
2018-01-21T18:22:36.997Z,10.97
2018-01-21T18:25:04.453Z,11.50
2018-01-21T18:27:31.901Z,11.77
2018-01-21T18:29:59.341Z,11.73
2018-01-21T18:32:27.525Z,12.87
2018-01-21T18:34:54.996Z,13.37
2018-01-21T18:37:22.476Z,13.93
2018-01-21T18:39:49.912Z,14.63
2018-01-21T18:42:17.359Z,13.63
2018-01-21T18:44:44.829Z,13.90
2018-01-21T18:47:12.256Z,14.13
2018-01-21T18:49:39.698Z,14.57
2018-01-21T18:52:07.920Z,13.37
2018-01-21T18:54:35.340Z,14.30
2018-01-21T18:57:03.040Z,13.90
2018-01-21T18:59:30.467Z,15.30
2018-01-21T19:01:57.901Z,16.70
2018-01-21T19:04:26.113Z,16.17
2018-01-21T19:06:53.544Z,17.10
2018-01-21T19:09:20.976Z,17.33
2018-01-21T19:11:48.496Z,16.40
2018-01-21T19:14:15.928Z,15.97
2018-01-21T19:16:43.354Z,15.87
2018-01-21T19:19:11.571Z,16.10
2018-01-21T19:21:39.042Z,17.00
2018-01-21T19:24:06.498Z,17.17
2018-01-21T19:26:33.924Z,17.80
2018-01-21T19:29:01.369Z,18.77
2018-01-21T19:31:29.564Z,17.80
2018-01-21T19:33:57.009Z,17.57
2018-01-21T19:36:24.488Z,18.50
2018-01-21T19:38:54.933Z,18.47
2018-01-21T19:41:38.174Z,17.80
2018-01-21T19:44:21.265Z,17.43
2018-01-21T19:46:48.704Z,17.90
2018-01-21T19:49:16.184Z,17.20
2018-01-21T19:51:43.638Z,19.33
2018-01-21T19:54:11.194Z,18.17
2018-01-21T19:56:39.474Z,19.50
2018-01-21T19:59:06.963Z,18.53
2018-01-21T20:01:34.400Z,18.60
2018-01-21T20:04:01.848Z,19.37
2018-01-21T20:06:29.303Z,17.73
2018-01-21T20:08:56.968Z,19.20
2018-01-21T20:11:24.406Z,18.10
2018-01-21T20:13:51.838Z,18.17
2018-01-21T20:16:20.056Z,18.63
2018-01-21T20:18:47.496Z,18.83
2018-01-21T20:21:14.995Z,19.20
2018-01-21T20:23:42.532Z,18.60
2018-01-21T20:26:09.968Z,19.03
2018-01-21T20:28:37.400Z,20.30
2018-01-21T20:31:05.637Z,18.47
2018-01-21T20:33:33.071Z,20.70
2018-01-21T20:36:00.496Z,19.87
2018-01-21T20:38:28.793Z,18.43
2018-01-21T20:40:56.216Z,19.33
2018-01-21T20:43:24.416Z,19.93
2018-01-21T20:45:52.112Z,19.57
2018-01-21T20:48:19.567Z,19.10
2018-01-21T20:50:47.046Z,19.50
2018-01-21T20:53:20.255Z,18.87
2018-01-21T20:55:47.775Z,20.87
2018-01-21T20:58:15.227Z,20.70
2018-01-21T21:00:42.689Z,19.53
2018-01-21T21:03:10.101Z,21.60
2018-01-21T21:05:38.305Z,19.63
2018-01-21T21:08:05.747Z,21.10
2018-01-21T21:10:33.242Z,20.27
2018-01-21T21:13:00.713Z,19.27
2018-01-21T21:15:28.448Z,20.60
2018-01-21T21:17:55.877Z,20.17
2018-01-21T21:20:23.376Z,19.53
2018-01-21T21:22:50.820Z,19.97
2018-01-21T21:25:18.274Z,19.50
2018-01-21T21:27:45.740Z,18.73
2018-01-21T21:30:13.187Z,19.53
2018-01-21T21:32:40.666Z,17.00
2018-01-21T21:35:08.096Z,15.50
2018-01-21T21:37:35.532Z,16.50
2018-01-21T21:40:03.731Z,14.43
2018-01-21T21:42:31.160Z,14.83
2018-01-21T21:44:59.422Z,15.33
2018-01-21T21:47:26.918Z,15.27
2018-01-21T21:49:54.361Z,14.20
2018-01-21T21:52:21.859Z,14.63
2018-01-21T21:54:49.312Z,14.10
2018-01-21T21:57:16.789Z,15.00
2018-01-21T21:59:44.524Z,15.67
2018-01-21T22:02:11.944Z,15.20
2018-01-21T22:04:40.148Z,14.87
2018-01-21T22:07:07.694Z,15.37
2018-01-21T22:09:35.891Z,13.67
2018-01-21T22:12:03.337Z,14.13
2018-01-21T22:14:30.764Z,14.83
2018-01-21T22:16:58.956Z,13.77
2018-01-21T22:19:26.383Z,14.70
2018-01-21T22:21:54.642Z,14.83
2018-01-21T22:24:22.188Z,15.17
2018-01-21T22:26:49.615Z,15.43
2018-01-21T22:29:17.060Z,15.03
2018-01-21T22:31:44.492Z,15.20
2018-01-21T22:34:12.692Z,14.83
2018-01-21T22:36:40.172Z,13.93
2018-01-21T22:39:07.628Z,14.63
2018-01-21T22:41:35.051Z,13.53
2018-01-21T22:44:02.510Z,12.30
2018-01-21T22:46:29.915Z,13.00
2018-01-21T22:48:57.348Z,12.27
2018-01-21T22:51:24.816Z,13.77
2018-01-21T22:53:52.244Z,13.93
2018-01-21T22:56:19.668Z,12.67
2018-01-21T22:58:47.254Z,11.43
2018-01-21T23:01:14.721Z,12.03
2018-01-21T23:03:42.173Z,10.73
2018-01-21T23:06:09.642Z,12.90
2018-01-21T23:08:37.068Z,12.90
2018-01-21T23:11:04.544Z,14.17
2018-01-21T23:13:31.994Z,15.00
2018-01-21T23:15:59.412Z,15.73
2018-01-21T23:18:27.645Z,16.70
2018-01-21T23:20:59.604Z,16.23
2018-01-21T23:23:27.060Z,15.90
2018-01-21T23:25:54.501Z,15.13
2018-01-21T23:28:21.939Z,18.63
2018-01-21T23:30:49.373Z,16.90
2018-01-21T23:33:16.888Z,17.80
2018-01-21T23:35:44.331Z,19.47
2018-01-21T23:38:11.765Z,20.20
2018-01-21T23:40:39.192Z,17.33
2018-01-21T23:43:06.632Z,19.60
2018-01-21T23:45:34.176Z,19.30
2018-01-21T23:48:01.600Z,19.50
2018-01-21T23:50:29.046Z,16.70
2018-01-21T23:52:57.291Z,17.77
2018-01-21T23:55:24.718Z,15.53
2018-01-21T23:57:52.162Z,14.40
